Time;durP1;ratioP1;P1;durP2;ratioP2;P2;SDS_P1;SDS_P2;PMS_P1;PMS_P2;Temp;Humidity;BMP_temperature;BMP_pressure;BME280_temperature;BME280_humidity;BME280_pressure;Samples;Min_cycle;Max_cycle;Signal;HPM_P1;HPM_P2
2023/06/22 00:00:08;;;;;;;;;;;23.20;98.50;;;;;;7333018;19;109921;-65
2023/06/22 00:02:35;;;;;;;;;;;23.00;99.20;;;;;;7330826;19;109461;-65
2023/06/22 00:05:02;;;;;;;;;;;23.00;98.80;;;;;;7331207;19;109157;-65
2023/06/22 00:07:30;;;;;;;;;;;23.00;98.90;;;;;;7333199;19;108870;-65
2023/06/22 00:09:57;;;;;;;;;;;23.00;99.00;;;;;;7332745;19;108682;-65
2023/06/22 00:12:25;;;;;;;;;;;23.00;99.10;;;;;;7331147;19;108932;-65
2023/06/22 00:14:52;;;;;;;;;;;23.00;98.90;;;;;;7338803;19;109125;-65
2023/06/22 00:17:19;;;;;;;;;;;23.00;98.90;;;;;;7332918;19;109608;-64
2023/06/22 00:19:53;;;;;;;;;;;23.00;99.20;;;;;;7332773;19;109944;-65
2023/06/22 00:22:28;;;;;;;;;;;23.00;99.00;;;;;;7322652;19;109707;-65
2023/06/22 00:24:56;;;;;;;;;;;22.90;99.00;;;;;;7335884;19;109017;-65
2023/06/22 00:27:23;;;;;;;;;;;22.90;99.20;;;;;;7332276;19;109220;-65
2023/06/22 00:29:51;;;;;;;;;;;22.90;99.20;;;;;;7333715;19;110643;-65
2023/06/22 00:32:18;;;;;;;;;;;22.80;99.20;;;;;;7332709;19;108788;-65
2023/06/22 00:34:46;;;;;;;;;;;22.80;99.40;;;;;;7333426;19;109307;-65
2023/06/22 00:37:13;;;;;;;;;;;22.80;99.40;;;;;;7338039;19;108885;-65
2023/06/22 00:39:40;;;;;;;;;;;22.70;99.70;;;;;;7333762;19;114576;-65
2023/06/22 00:42:07;;;;;;;;;;;22.70;99.70;;;;;;7330999;19;109639;-65
2023/06/22 00:44:38;;;;;;;;;;;22.60;99.70;;;;;;7336129;19;109458;-65
2023/06/22 00:47:06;;;;;;;;;;;22.60;99.90;;;;;;7332148;19;109211;-65
2023/06/22 00:49:33;;;;;;;;;;;22.60;99.90;;;;;;7332247;19;109804;-65
2023/06/22 00:52:00;;;;;;;;;;;22.60;99.90;;;;;;7328581;19;109460;-65
2023/06/22 00:54:28;;;;;;;;;;;22.60;99.90;;;;;;7331085;19;109863;-67
2023/06/22 00:56:57;;;;;;;;;;;22.50;99.90;;;;;;7340699;19;108833;-65
2023/06/22 00:59:26;;;;;;;;;;;22.40;99.90;;;;;;7329649;19;111393;-65
2023/06/22 01:01:53;;;;;;;;;;;22.40;99.90;;;;;;7329213;19;108818;-66
2023/06/22 01:04:21;;;;;;;;;;;22.30;99.90;;;;;;7329423;19;109588;-65
2023/06/22 01:06:56;;;;;;;;;;;22.10;99.90;;;;;;7326223;19;109984;-65
2023/06/22 01:09:28;;;;;;;;;;;22.10;99.90;;;;;;7335308;19;109617;-65
2023/06/22 01:11:57;;;;;;;;;;;22.10;99.90;;;;;;7325288;19;113387;-65
2023/06/22 01:14:28;;;;;;;;;;;22.20;99.90;;;;;;7333767;19;109977;-66
2023/06/22 01:16:56;;;;;;;;;;;22.20;99.90;;;;;;7332349;19;108981;-65
2023/06/22 01:19:26;;;;;;;;;;;22.10;99.90;;;;;;7332257;19;109485;-65
2023/06/22 01:21:55;;;;;;;;;;;22.10;99.90;;;;;;7329165;19;110632;-65
2023/06/22 01:24:25;;;;;;;;;;;22.10;99.90;;;;;;7334542;19;110760;-65
2023/06/22 01:26:57;;;;;;;;;;;22.10;99.90;;;;;;7331723;19;109521;-65
2023/06/22 01:29:26;;;;;;;;;;;22.10;99.90;;;;;;7330625;19;109052;-65
2023/06/22 01:31:54;;;;;;;;;;;22.10;99.90;;;;;;7332513;19;109612;-65
2023/06/22 01:34:22;;;;;;;;;;;22.10;99.90;;;;;;7333663;19;110507;-65
2023/06/22 01:36:50;;;;;;;;;;;22.10;99.90;;;;;;7326309;19;108763;-65
2023/06/22 01:39:18;;;;;;;;;;;22.10;99.90;;;;;;7331894;19;110297;-65
2023/06/22 01:41:46;;;;;;;;;;;22.10;99.90;;;;;;7338610;19;112494;-65
2023/06/22 01:44:13;;;;;;;;;;;22.10;99.90;;;;;;7333633;19;109177;-65
2023/06/22 01:46:40;;;;;;;;;;;22.00;99.90;;;;;;7329854;19;109940;-65
2023/06/22 01:49:08;;;;;;;;;;;22.10;99.90;;;;;;7331002;19;111547;-65
2023/06/22 01:51:35;;;;;;;;;;;22.10;99.90;;;;;;7330110;19;111426;-65
2023/06/22 01:54:02;;;;;;;;;;;22.10;99.90;;;;;;7329652;19;109150;-66
2023/06/22 01:56:30;;;;;;;;;;;22.10;99.90;;;;;;7332581;19;109189;-66
2023/06/22 01:59:05;;;;;;;;;;;22.00;99.90;;;;;;7326599;19;109819;-65
2023/06/22 02:01:36;;;;;;;;;;;21.80;99.90;;;;;;7332374;19;109529;-65
2023/06/22 02:04:08;;;;;;;;;;;21.70;99.90;;;;;;7336595;19;109986;-68
2023/06/22 02:06:39;;;;;;;;;;;21.60;99.90;;;;;;7335569;19;109150;-66
2023/06/22 02:09:08;;;;;;;;;;;21.50;99.90;;;;;;7332294;19;110756;-65
2023/06/22 02:11:36;;;;;;;;;;;21.50;99.90;;;;;;7342238;19;110038;-66
2023/06/22 02:14:04;;;;;;;;;;;21.50;99.90;;;;;;7333337;19;109737;-65
2023/06/22 02:16:32;;;;;;;;;;;21.50;99.90;;;;;;7340990;19;109787;-65
2023/06/22 02:19:03;;;;;;;;;;;21.60;99.90;;;;;;7329939;19;109195;-65
2023/06/22 02:21:31;;;;;;;;;;;21.50;99.90;;;;;;7335665;19;109764;-65
2023/06/22 02:23:58;;;;;;;;;;;21.60;99.90;;;;;;7337757;19;108351;-68
2023/06/22 02:26:26;;;;;;;;;;;21.60;99.90;;;;;;7340647;19;112135;-65
2023/06/22 02:28:53;;;;;;;;;;;21.60;99.90;;;;;;7339945;19;108545;-66
2023/06/22 02:31:20;;;;;;;;;;;21.60;99.90;;;;;;7340103;19;108350;-65
2023/06/22 02:33:48;;;;;;;;;;;21.40;99.90;;;;;;7333562;19;110943;-68
2023/06/22 02:36:15;;;;;;;;;;;21.30;99.90;;;;;;7335203;19;113172;-67
2023/06/22 02:38:48;;;;;;;;;;;21.20;99.90;;;;;;7339296;19;109095;-66
2023/06/22 02:41:18;;;;;;;;;;;21.10;99.90;;;;;;7336500;19;110819;-65
2023/06/22 02:43:48;;;;;;;;;;;21.10;99.90;;;;;;7330551;19;108654;-65
2023/06/22 02:46:15;;;;;;;;;;;21.00;99.90;;;;;;7337525;19;109850;-67
2023/06/22 02:48:42;;;;;;;;;;;21.10;99.90;;;;;;7339348;19;109809;-65
2023/06/22 02:51:12;;;;;;;;;;;21.10;99.90;;;;;;7336888;19;110636;-68
2023/06/22 02:53:39;;;;;;;;;;;21.10;99.90;;;;;;7336367;19;109517;-65
2023/06/22 02:56:06;;;;;;;;;;;20.90;99.90;;;;;;7335544;19;109328;-66
2023/06/22 02:58:38;;;;;;;;;;;20.90;99.90;;;;;;7333463;19;110173;-65
2023/06/22 03:01:05;;;;;;;;;;;20.80;99.90;;;;;;7336681;19;113579;-67
2023/06/22 03:03:33;;;;;;;;;;;20.80;99.90;;;;;;7335770;19;108835;-65
2023/06/22 03:06:03;;;;;;;;;;;20.80;99.90;;;;;;7332674;19;114258;-67
2023/06/22 03:08:30;;;;;;;;;;;20.80;99.90;;;;;;7341609;19;109681;-65
2023/06/22 03:10:57;;;;;;;;;;;20.80;99.90;;;;;;7328559;19;109130;-65
2023/06/22 03:13:24;;;;;;;;;;;20.70;99.90;;;;;;7331101;19;110150;-65
2023/06/22 03:15:52;;;;;;;;;;;20.70;99.90;;;;;;7334344;19;112242;-65
2023/06/22 03:18:22;;;;;;;;;;;20.60;99.90;;;;;;7334942;19;109123;-65
2023/06/22 03:20:49;;;;;;;;;;;20.60;99.90;;;;;;7338150;19;109133;-65
2023/06/22 03:23:16;;;;;;;;;;;20.50;99.90;;;;;;7331388;19;109396;-65
2023/06/22 03:25:44;;;;;;;;;;;20.40;99.90;;;;;;7334801;19;110639;-65
2023/06/22 03:28:12;;;;;;;;;;;20.40;99.90;;;;;;7332225;19;111376;-65
2023/06/22 03:30:39;;;;;;;;;;;20.40;99.90;;;;;;7340408;19;109686;-65
2023/06/22 03:33:06;;;;;;;;;;;20.30;99.90;;;;;;7331768;19;109559;-66
2023/06/22 03:35:33;;;;;;;;;;;20.30;99.90;;;;;;7333410;19;109228;-65
2023/06/22 03:38:00;;;;;;;;;;;20.30;99.90;;;;;;7333083;19;112252;-65
2023/06/22 03:40:28;;;;;;;;;;;20.30;99.90;;;;;;7331189;19;110115;-65
2023/06/22 03:42:55;;;;;;;;;;;20.30;99.90;;;;;;7334551;19;109280;-67
2023/06/22 03:45:22;;;;;;;;;;;20.30;99.90;;;;;;7332015;19;109835;-67
2023/06/22 03:47:49;;;;;;;;;;;20.30;99.90;;;;;;7332570;19;110439;-72
2023/06/22 03:50:20;;;;;;;;;;;20.30;99.90;;;;;;7333854;19;109445;-68
2023/06/22 03:52:47;;;;;;;;;;;20.30;99.90;;;;;;7340990;19;109317;-65
2023/06/22 03:55:14;;;;;;;;;;;20.30;99.90;;;;;;7336764;19;108473;-67
2023/06/22 03:57:41;;;;;;;;;;;20.30;99.90;;;;;;7334591;19;111681;-64
2023/06/22 04:00:10;;;;;;;;;;;20.30;99.90;;;;;;7328595;19;109187;-68
2023/06/22 04:02:37;;;;;;;;;;;20.40;99.90;;;;;;7334842;19;108720;-69
2023/06/22 04:05:04;;;;;;;;;;;20.50;99.90;;;;;;7331305;19;110170;-64
2023/06/22 04:07:32;;;;;;;;;;;20.60;99.90;;;;;;7329779;19;110641;-71
2023/06/22 04:09:59;;;;;;;;;;;20.60;99.90;;;;;;7323371;19;109624;-69
2023/06/22 04:12:26;;;;;;;;;;;20.50;99.90;;;;;;7336269;19;108896;-70
2023/06/22 04:14:53;;;;;;;;;;;20.60;99.90;;;;;;7328625;19;109830;-66
2023/06/22 04:17:20;;;;;;;;;;;20.60;99.90;;;;;;7330693;19;109667;-72
2023/06/22 04:19:47;;;;;;;;;;;20.70;99.90;;;;;;7333073;19;109835;-71
2023/06/22 04:22:14;;;;;;;;;;;20.70;99.90;;;;;;7331683;19;110765;-73
2023/06/22 04:24:41;;;;;;;;;;;20.70;99.90;;;;;;7331162;19;110804;-64
2023/06/22 04:27:08;;;;;;;;;;;20.60;99.90;;;;;;7332261;19;109519;-64
2023/06/22 04:29:48;;;;;;;;;;;20.50;99.90;;;;;;7333416;19;113319;-65
2023/06/22 04:32:25;;;;;;;;;;;20.50;99.90;;;;;;7328635;19;113002;-64
2023/06/22 04:34:52;;;;;;;;;;;20.60;99.90;;;;;;7330941;19;110093;-64
2023/06/22 04:37:23;;;;;;;;;;;20.60;99.90;;;;;;7339049;19;108843;-64
2023/06/22 04:39:52;;;;;;;;;;;20.60;99.90;;;;;;7330319;19;113054;-64
2023/06/22 04:42:19;;;;;;;;;;;20.60;99.90;;;;;;7332321;19;109124;-66
2023/06/22 04:44:46;;;;;;;;;;;20.70;99.90;;;;;;7334742;19;109543;-65
2023/06/22 04:47:13;;;;;;;;;;;20.70;99.90;;;;;;7331420;19;110556;-64
2023/06/22 04:49:42;;;;;;;;;;;20.60;99.90;;;;;;7331699;19;111405;-64
2023/06/22 04:52:10;;;;;;;;;;;20.60;99.90;;;;;;7332529;19;109336;-64
2023/06/22 04:54:38;;;;;;;;;;;20.60;99.90;;;;;;7328379;19;109212;-64
2023/06/22 04:57:10;;;;;;;;;;;20.60;99.90;;;;;;7339837;19;109598;-64
2023/06/22 04:59:41;;;;;;;;;;;20.60;99.90;;;;;;7328863;19;109047;-64
2023/06/22 05:02:09;;;;;;;;;;;20.50;99.90;;;;;;7326715;19;109973;-64
2023/06/22 05:04:38;;;;;;;;;;;20.50;99.90;;;;;;7330818;19;109180;-65
2023/06/22 05:07:06;;;;;;;;;;;20.60;99.90;;;;;;7330400;19;109419;-64
2023/06/22 05:09:34;;;;;;;;;;;20.60;99.90;;;;;;7329843;19;108480;-64
2023/06/22 05:12:02;;;;;;;;;;;20.60;99.90;;;;;;7328376;19;109774;-64
2023/06/22 05:14:30;;;;;;;;;;;20.60;99.90;;;;;;7328630;19;109997;-64
2023/06/22 05:17:03;;;;;;;;;;;20.70;99.90;;;;;;7327013;19;110612;-64
2023/06/22 05:19:33;;;;;;;;;;;20.80;99.90;;;;;;7336671;19;109403;-64
2023/06/22 05:22:01;;;;;;;;;;;20.80;99.90;;;;;;7332274;19;108889;-65
2023/06/22 05:24:28;;;;;;;;;;;20.90;99.90;;;;;;7335233;19;109080;-64
2023/06/22 05:26:55;;;;;;;;;;;21.00;99.90;;;;;;7333677;19;111192;-65
2023/06/22 05:29:22;;;;;;;;;;;21.10;99.90;;;;;;7330102;19;109651;-65
2023/06/22 05:31:50;;;;;;;;;;;21.10;99.90;;;;;;7330595;19;109704;-65
2023/06/22 05:34:17;;;;;;;;;;;21.20;99.90;;;;;;7328449;19;110431;-65
2023/06/22 05:36:44;;;;;;;;;;;21.20;99.90;;;;;;7331305;19;109082;-64
2023/06/22 05:39:15;;;;;;;;;;;21.20;99.90;;;;;;7331281;19;109300;-65
2023/06/22 05:41:45;;;;;;;;;;;21.30;99.90;;;;;;7337069;19;109660;-65
2023/06/22 05:44:12;;;;;;;;;;;21.30;99.90;;;;;;7330935;19;109644;-64
2023/06/22 05:46:44;;;;;;;;;;;21.30;99.90;;;;;;7332314;19;110429;-60
2023/06/22 05:49:11;;;;;;;;;;;21.30;99.90;;;;;;7329439;19;108589;-62
2023/06/22 05:51:39;;;;;;;;;;;21.30;99.90;;;;;;7333702;19;109604;-61
2023/06/22 05:54:07;;;;;;;;;;;21.20;99.90;;;;;;7331472;19;109450;-62
2023/06/22 05:56:34;;;;;;;;;;;21.30;99.90;;;;;;7331684;19;108573;-62
2023/06/22 05:59:02;;;;;;;;;;;21.30;99.90;;;;;;7331615;19;109409;-62
2023/06/22 06:01:33;;;;;;;;;;;21.40;99.90;;;;;;7329440;19;109046;-61
2023/06/22 06:04:00;;;;;;;;;;;21.50;99.90;;;;;;7337266;19;108841;-61
2023/06/22 06:06:28;;;;;;;;;;;21.50;99.90;;;;;;7329175;19;109287;-62
2023/06/22 06:08:55;;;;;;;;;;;21.50;99.90;;;;;;7333147;19;109396;-61
2023/06/22 06:11:23;;;;;;;;;;;21.50;99.90;;;;;;7330834;19;109730;-61
2023/06/22 06:13:50;;;;;;;;;;;21.50;99.90;;;;;;7330725;19;108931;-62
2023/06/22 06:16:17;;;;;;;;;;;21.50;99.90;;;;;;7331400;19;109508;-61
2023/06/22 06:18:44;;;;;;;;;;;21.50;99.90;;;;;;7330210;19;110218;-61
2023/06/22 06:21:11;;;;;;;;;;;21.50;99.90;;;;;;7330660;19;109085;-61
2023/06/22 06:23:38;;;;;;;;;;;21.50;99.90;;;;;;7332898;19;110419;-61
2023/06/22 06:26:06;;;;;;;;;;;21.40;99.90;;;;;;7335479;19;113234;-62
2023/06/22 06:28:34;;;;;;;;;;;21.40;99.90;;;;;;7330009;19;108553;-61
2023/06/22 06:31:01;;;;;;;;;;;21.30;99.90;;;;;;7329364;19;111262;-62
2023/06/22 06:33:28;;;;;;;;;;;21.30;99.90;;;;;;7331057;19;111742;-62
2023/06/22 06:35:56;;;;;;;;;;;21.40;99.90;;;;;;7330291;19;111355;-62
2023/06/22 06:38:23;;;;;;;;;;;21.40;99.90;;;;;;7333950;19;111470;-61
2023/06/22 06:40:50;;;;;;;;;;;21.30;99.90;;;;;;7332139;19;109931;-61
2023/06/22 06:43:17;;;;;;;;;;;21.30;99.90;;;;;;7327318;19;108447;-61
2023/06/22 06:45:44;;;;;;;;;;;21.40;99.90;;;;;;7332656;19;110099;-61
2023/06/22 06:48:12;;;;;;;;;;;21.40;99.90;;;;;;7338283;19;110194;-61
2023/06/22 06:50:39;;;;;;;;;;;21.50;99.90;;;;;;7329030;19;110370;-61
2023/06/22 06:53:06;;;;;;;;;;;21.50;99.90;;;;;;7337501;19;110135;-61
2023/06/22 06:55:33;;;;;;;;;;;21.50;99.90;;;;;;7335346;19;109662;-62
2023/06/22 06:58:00;;;;;;;;;;;21.50;99.90;;;;;;7333518;19;108405;-61
2023/06/22 07:00:27;;;;;;;;;;;21.50;99.90;;;;;;7337595;19;110198;-61
2023/06/22 07:02:55;;;;;;;;;;;21.50;99.90;;;;;;7337098;19;108495;-61
2023/06/22 07:05:22;;;;;;;;;;;21.50;99.90;;;;;;7336177;19;108992;-61
2023/06/22 07:07:49;;;;;;;;;;;21.50;99.90;;;;;;7342163;19;109136;-61
2023/06/22 07:10:16;;;;;;;;;;;21.50;99.90;;;;;;7336172;19;109415;-61
2023/06/22 07:12:43;;;;;;;;;;;21.40;99.90;;;;;;7339307;19;109835;-61
2023/06/22 07:15:12;;;;;;;;;;;21.40;99.90;;;;;;7335462;19;108484;-61
2023/06/22 07:17:40;;;;;;;;;;;21.40;99.90;;;;;;7338856;19;108278;-61
2023/06/22 07:20:10;;;;;;;;;;;21.40;99.90;;;;;;7336850;19;109718;-61
2023/06/22 07:22:37;;;;;;;;;;;21.40;99.90;;;;;;7339218;19;108898;-61
2023/06/22 07:25:08;;;;;;;;;;;21.40;99.90;;;;;;7336618;19;110648;-62
2023/06/22 07:27:37;;;;;;;;;;;21.40;99.90;;;;;;7337422;19;110230;-61
2023/06/22 07:30:05;;;;;;;;;;;21.50;99.90;;;;;;7341151;19;109931;-61
2023/06/22 07:32:32;;;;;;;;;;;21.50;99.90;;;;;;7338366;19;110691;-61
2023/06/22 07:35:00;;;;;;;;;;;21.40;99.90;;;;;;7336924;19;109221;-61
2023/06/22 07:37:28;;;;;;;;;;;21.30;99.90;;;;;;7337891;19;108608;-62
2023/06/22 07:39:58;;;;;;;;;;;21.30;99.90;;;;;;7336931;19;109316;-61
2023/06/22 07:42:25;;;;;;;;;;;21.30;99.90;;;;;;7334992;19;110519;-62
2023/06/22 07:44:53;;;;;;;;;;;21.30;99.90;;;;;;7334701;19;108729;-62
2023/06/22 07:47:24;;;;;;;;;;;21.30;99.90;;;;;;7335882;19;109615;-61
2023/06/22 07:49:54;;;;;;;;;;;21.30;99.90;;;;;;7333029;19;110191;-61
2023/06/22 07:52:21;;;;;;;;;;;21.40;99.90;;;;;;7340744;19;110145;-61
2023/06/22 07:54:48;;;;;;;;;;;21.40;99.90;;;;;;7331266;19;109056;-62
2023/06/22 07:57:15;;;;;;;;;;;21.40;99.90;;;;;;7335210;19;112846;-61
2023/06/22 07:59:42;;;;;;;;;;;21.30;99.90;;;;;;7333465;19;109528;-61
2023/06/22 08:02:09;;;;;;;;;;;21.30;99.90;;;;;;7333832;19;110367;-61
2023/06/22 08:04:37;;;;;;;;;;;21.40;99.90;;;;;;7335720;19;110971;-61
2023/06/22 08:07:04;;;;;;;;;;;21.40;99.90;;;;;;7335794;19;109719;-61
2023/06/22 08:09:31;;;;;;;;;;;21.40;99.90;;;;;;7334736;19;109742;-61
2023/06/22 08:11:59;;;;;;;;;;;21.40;99.90;;;;;;7334342;19;108821;-61
2023/06/22 08:14:27;;;;;;;;;;;21.50;99.90;;;;;;7339933;19;109909;-62
2023/06/22 08:16:54;;;;;;;;;;;21.60;99.90;;;;;;7333667;19;108596;-61
2023/06/22 08:19:21;;;;;;;;;;;21.60;99.90;;;;;;7336027;19;110092;-61
2023/06/22 08:21:48;;;;;;;;;;;21.60;99.90;;;;;;7332609;19;109464;-61
2023/06/22 08:24:15;;;;;;;;;;;21.60;99.90;;;;;;7333739;19;110219;-61
2023/06/22 08:26:42;;;;;;;;;;;21.60;99.90;;;;;;7331711;19;109450;-61
2023/06/22 08:29:09;;;;;;;;;;;21.70;99.90;;;;;;7332159;19;109659;-61
2023/06/22 08:31:36;;;;;;;;;;;21.70;99.90;;;;;;7334096;19;108371;-61
2023/06/22 08:34:03;;;;;;;;;;;21.80;99.90;;;;;;7335331;19;109295;-61
2023/06/22 08:36:35;;;;;;;;;;;21.80;99.90;;;;;;7338725;19;110433;-61
2023/06/22 08:39:02;;;;;;;;;;;21.80;99.90;;;;;;7335353;19;110235;-61
2023/06/22 08:41:30;;;;;;;;;;;21.90;99.90;;;;;;7336023;19;109086;-61
2023/06/22 08:43:57;;;;;;;;;;;21.90;99.90;;;;;;7333289;19;109406;-61
2023/06/22 08:46:30;;;;;;;;;;;22.00;99.90;;;;;;7330370;19;110522;-64
2023/06/22 08:48:58;;;;;;;;;;;22.00;99.90;;;;;;7331439;19;109608;-61
2023/06/22 08:51:26;;;;;;;;;;;22.00;99.90;;;;;;7332235;19;114110;-59
2023/06/22 08:53:53;;;;;;;;;;;22.00;99.90;;;;;;7331611;19;109481;-61
2023/06/22 08:56:20;;;;;;;;;;;22.10;99.90;;;;;;7332392;19;111730;-61
2023/06/22 08:58:47;;;;;;;;;;;22.10;99.90;;;;;;7336692;19;108830;-61
2023/06/22 09:01:15;;;;;;;;;;;22.10;99.90;;;;;;7335022;19;108920;-61
2023/06/22 09:03:42;;;;;;;;;;;22.10;99.90;;;;;;7335358;19;108447;-61
2023/06/22 09:06:10;;;;;;;;;;;22.20;99.90;;;;;;7334858;19;110284;-61
2023/06/22 09:08:37;;;;;;;;;;;22.20;99.90;;;;;;7333734;19;108702;-61
2023/06/22 09:11:04;;;;;;;;;;;22.20;99.90;;;;;;7333466;19;110411;-61
2023/06/22 09:13:32;;;;;;;;;;;22.20;99.90;;;;;;7330900;19;109125;-61
2023/06/22 09:15:59;;;;;;;;;;;22.10;99.90;;;;;;7334208;19;108589;-61
2023/06/22 09:18:27;;;;;;;;;;;22.20;99.90;;;;;;7334780;19;108568;-61
2023/06/22 09:20:54;;;;;;;;;;;22.20;99.90;;;;;;7333412;19;108507;-61
2023/06/22 09:23:21;;;;;;;;;;;22.20;99.90;;;;;;7333828;19;108370;-61
2023/06/22 09:25:48;;;;;;;;;;;22.20;99.90;;;;;;7334119;19;110449;-61
2023/06/22 09:28:15;;;;;;;;;;;22.20;99.90;;;;;;7334508;19;110437;-60
2023/06/22 09:30:45;;;;;;;;;;;22.30;99.90;;;;;;7333729;19;108577;-60
2023/06/22 09:33:12;;;;;;;;;;;22.30;99.90;;;;;;7332641;19;109784;-61
2023/06/22 09:35:39;;;;;;;;;;;22.40;99.90;;;;;;7334802;19;108454;-62
2023/06/22 09:38:06;;;;;;;;;;;22.40;99.90;;;;;;7332473;19;109095;-61
2023/06/22 09:40:39;;;;;;;;;;;22.50;99.90;;;;;;7338979;19;109911;-61
2023/06/22 09:43:07;;;;;;;;;;;22.50;99.90;;;;;;7333130;19;109203;-62
2023/06/22 09:45:34;;;;;;;;;;;22.50;99.90;;;;;;7331505;19;110544;-61
2023/06/22 09:48:01;;;;;;;;;;;22.60;99.90;;;;;;7332718;19;109706;-61
2023/06/22 09:50:28;;;;;;;;;;;22.60;99.90;;;;;;7332922;19;108756;-61
2023/06/22 09:52:55;;;;;;;;;;;22.70;99.90;;;;;;7328378;19;111419;-61
2023/06/22 09:55:22;;;;;;;;;;;22.80;99.90;;;;;;7331250;19;109234;-61
2023/06/22 09:57:49;;;;;;;;;;;22.80;99.90;;;;;;7332577;19;110539;-61
2023/06/22 10:00:17;;;;;;;;;;;22.80;99.90;;;;;;7328167;19;109499;-62
2023/06/22 10:02:44;;;;;;;;;;;22.80;99.90;;;;;;7337043;19;108206;-61
2023/06/22 10:05:11;;;;;;;;;;;22.90;99.90;;;;;;7332016;19;109904;-62
2023/06/22 10:07:42;;;;;;;;;;;23.00;99.90;;;;;;7331588;19;108946;-61
2023/06/22 10:10:10;;;;;;;;;;;23.00;99.90;;;;;;7332697;19;108964;-62
2023/06/22 10:12:41;;;;;;;;;;;23.10;99.90;;;;;;7330385;19;110107;-62
2023/06/22 10:15:08;;;;;;;;;;;23.10;99.90;;;;;;7331884;19;109097;-61
2023/06/22 10:17:36;;;;;;;;;;;23.10;99.90;;;;;;7330931;19;108763;-61
2023/06/22 10:20:10;;;;;;;;;;;23.00;99.90;;;;;;7329516;19;110287;-62
2023/06/22 10:22:39;;;;;;;;;;;22.80;99.90;;;;;;7330747;19;109026;-61
2023/06/22 10:25:06;;;;;;;;;;;22.80;99.90;;;;;;7332298;19;109940;-61
2023/06/22 10:27:33;;;;;;;;;;;22.80;99.90;;;;;;7334571;19;112589;-61
2023/06/22 10:30:00;;;;;;;;;;;22.90;99.90;;;;;;7336429;19;109675;-62
2023/06/22 10:32:30;;;;;;;;;;;22.80;99.90;;;;;;7338719;19;110282;-62
2023/06/22 10:34:57;;;;;;;;;;;22.70;99.90;;;;;;7339325;19;108918;-64
2023/06/22 10:37:25;;;;;;;;;;;22.60;99.90;;;;;;7330752;19;110979;-58
2023/06/22 10:39:52;;;;;;;;;;;22.50;99.90;;;;;;7331770;19;109731;-58
2023/06/22 10:42:19;;;;;;;;;;;22.40;99.90;;;;;;7340455;19;108521;-58
2023/06/22 10:44:46;;;;;;;;;;;22.30;99.90;;;;;;7336996;19;109640;-59
2023/06/22 10:47:13;;;;;;;;;;;22.20;99.90;;;;;;7342247;19;109123;-56
2023/06/22 10:49:41;;;;;;;;;;;22.10;99.90;;;;;;7339032;19;108582;-58
2023/06/22 10:52:08;;;;;;;;;;;22.00;99.90;;;;;;7334696;19;114075;-58
2023/06/22 10:54:35;;;;;;;;;;;21.90;99.90;;;;;;7338141;19;109339;-57
2023/06/22 10:57:03;;;;;;;;;;;21.80;99.90;;;;;;7335643;19;109676;-58
2023/06/22 10:59:30;;;;;;;;;;;21.80;99.90;;;;;;7339566;19;109603;-56
2023/06/22 11:01:58;;;;;;;;;;;21.80;99.90;;;;;;7337779;19;108985;-56
2023/06/22 11:04:25;;;;;;;;;;;21.90;99.90;;;;;;7337208;19;110116;-57
2023/06/22 11:06:53;;;;;;;;;;;21.90;99.90;;;;;;7334728;19;112447;-57
2023/06/22 11:09:21;;;;;;;;;;;21.90;99.90;;;;;;7346005;19;108794;-57
2023/06/22 11:11:53;;;;;;;;;;;21.80;99.90;;;;;;7333563;19;109627;-55
2023/06/22 11:14:20;;;;;;;;;;;21.80;99.90;;;;;;7340470;19;108975;-55
2023/06/22 11:16:48;;;;;;;;;;;21.90;99.90;;;;;;7337889;19;109034;-58
2023/06/22 11:19:15;;;;;;;;;;;21.90;99.90;;;;;;7337365;19;110278;-57
2023/06/22 11:21:42;;;;;;;;;;;21.90;99.90;;;;;;7337809;19;109036;-58
2023/06/22 11:24:09;;;;;;;;;;;21.90;99.90;;;;;;7338160;19;108873;-57
2023/06/22 11:26:37;;;;;;;;;;;21.90;99.90;;;;;;7338064;19;109115;-58
2023/06/22 11:29:05;;;;;;;;;;;21.80;99.90;;;;;;7343974;19;109824;-57
2023/06/22 11:31:32;;;;;;;;;;;21.70;99.90;;;;;;7339874;19;109104;-57
2023/06/22 11:34:00;;;;;;;;;;;21.50;99.90;;;;;;7335285;19;109273;-57
2023/06/22 11:36:27;;;;;;;;;;;21.40;99.90;;;;;;7339152;19;108969;-55
2023/06/22 11:38:54;;;;;;;;;;;21.30;99.90;;;;;;7335178;19;109368;-56
2023/06/22 11:41:23;;;;;;;;;;;21.10;99.90;;;;;;7338676;19;109594;-57
2023/06/22 11:43:52;;;;;;;;;;;21.00;99.90;;;;;;7336856;19;108661;-57
2023/06/22 11:46:19;;;;;;;;;;;20.90;99.90;;;;;;7338631;19;109249;-57
2023/06/22 11:48:46;;;;;;;;;;;20.90;99.90;;;;;;7337344;19;109087;-57
2023/06/22 11:51:13;;;;;;;;;;;21.10;99.90;;;;;;7338350;19;109223;-54
2023/06/22 11:53:43;;;;;;;;;;;21.20;99.90;;;;;;7335999;19;108752;-56
2023/06/22 11:56:10;;;;;;;;;;;21.30;99.90;;;;;;7333488;19;109533;-56
2023/06/22 11:58:37;;;;;;;;;;;21.30;99.90;;;;;;7336700;19;109510;-57
2023/06/22 12:01:04;;;;;;;;;;;21.30;99.90;;;;;;7335586;19;109259;-56
2023/06/22 12:03:31;;;;;;;;;;;21.30;99.90;;;;;;7335273;19;109799;-56
2023/06/22 12:05:59;;;;;;;;;;;21.10;99.90;;;;;;7334655;19;109548;-56
2023/06/22 12:08:26;;;;;;;;;;;21.00;99.90;;;;;;7335318;19;109976;-56
2023/06/22 12:10:54;;;;;;;;;;;20.90;99.90;;;;;;7336793;19;108692;-54
2023/06/22 12:13:21;;;;;;;;;;;20.80;99.90;;;;;;7338538;19;112320;-56
2023/06/22 12:15:48;;;;;;;;;;;20.70;99.90;;;;;;7335810;19;109881;-57
2023/06/22 12:18:15;;;;;;;;;;;20.70;99.90;;;;;;7335771;19;109456;-58
2023/06/22 12:20:42;;;;;;;;;;;20.80;99.90;;;;;;7335546;19;110064;-57
2023/06/22 12:23:09;;;;;;;;;;;20.80;99.90;;;;;;7332294;19;108882;-57
2023/06/22 12:25:36;;;;;;;;;;;20.80;99.90;;;;;;7333938;19;110541;-57
2023/06/22 12:28:04;;;;;;;;;;;20.70;99.90;;;;;;7334382;19;109077;-58
2023/06/22 12:30:34;;;;;;;;;;;20.70;99.90;;;;;;7335141;19;108565;-56
2023/06/22 12:33:01;;;;;;;;;;;20.60;99.90;;;;;;7333476;19;110806;-57
2023/06/22 12:35:28;;;;;;;;;;;20.60;99.90;;;;;;7342290;19;109820;-57
2023/06/22 12:37:55;;;;;;;;;;;20.70;99.90;;;;;;7333565;19;111153;-57
2023/06/22 12:40:22;;;;;;;;;;;20.70;99.90;;;;;;7332941;19;109541;-55
2023/06/22 12:42:49;;;;;;;;;;;20.80;99.90;;;;;;7333772;19;109089;-58
2023/06/22 12:45:16;;;;;;;;;;;20.80;99.90;;;;;;7332101;19;109165;-58
2023/06/22 12:47:43;;;;;;;;;;;20.90;99.90;;;;;;7332323;19;109434;-59
2023/06/22 12:50:11;;;;;;;;;;;20.90;99.90;;;;;;7332555;19;112471;-57
2023/06/22 12:52:39;;;;;;;;;;;20.80;99.90;;;;;;7335152;19;109133;-58
2023/06/22 12:55:07;;;;;;;;;;;20.80;99.90;;;;;;7335513;19;109651;-57
2023/06/22 12:57:34;;;;;;;;;;;20.80;99.90;;;;;;7338341;19;109659;-59
2023/06/22 13:00:01;;;;;;;;;;;20.70;99.90;;;;;;7333915;19;108698;-57
2023/06/22 13:02:28;;;;;;;;;;;20.60;99.90;;;;;;7334082;19;108334;-57
2023/06/22 13:04:55;;;;;;;;;;;20.60;99.90;;;;;;7334967;19;114271;-57
2023/06/22 13:07:22;;;;;;;;;;;20.60;99.90;;;;;;7335428;19;110312;-57
2023/06/22 13:09:53;;;;;;;;;;;20.40;99.90;;;;;;7335137;19;108892;-57
2023/06/22 13:12:20;;;;;;;;;;;20.40;99.90;;;;;;7334909;19;111650;-59
2023/06/22 13:14:47;;;;;;;;;;;20.40;99.90;;;;;;7327368;19;112883;-56
2023/06/22 13:17:15;;;;;;;;;;;20.40;99.90;;;;;;7337861;19;109121;-57
2023/06/22 13:19:42;;;;;;;;;;;20.30;99.90;;;;;;7329178;19;109792;-59
2023/06/22 13:22:25;;;;;;;;;;;20.30;99.90;;;;;;7331505;19;108601;-56
2023/06/22 13:24:55;;;;;;;;;;;20.20;99.90;;;;;;7330483;19;110108;-57
2023/06/22 13:27:22;;;;;;;;;;;20.10;99.90;;;;;;7332980;19;110753;-56
2023/06/22 13:29:49;;;;;;;;;;;20.20;99.90;;;;;;7330675;19;109690;-57
2023/06/22 13:32:16;;;;;;;;;;;20.20;99.90;;;;;;7332335;19;110032;-58
2023/06/22 13:34:43;;;;;;;;;;;20.20;99.90;;;;;;7332229;19;109573;-58
2023/06/22 13:37:10;;;;;;;;;;;20.30;99.90;;;;;;7333175;19;108779;-56
2023/06/22 13:39:38;;;;;;;;;;;20.30;99.90;;;;;;7334303;19;109283;-57
2023/06/22 13:42:05;;;;;;;;;;;20.20;99.90;;;;;;7332001;19;108911;-58
2023/06/22 13:44:32;;;;;;;;;;;20.10;99.90;;;;;;7331110;19;113139;-55
2023/06/22 13:46:59;;;;;;;;;;;20.10;99.90;;;;;;7332831;19;108892;-55
2023/06/22 13:49:26;;;;;;;;;;;20.10;99.90;;;;;;7331284;19;110609;-58
2023/06/22 13:51:53;;;;;;;;;;;20.10;99.90;;;;;;7332544;19;109641;-57
2023/06/22 13:54:21;;;;;;;;;;;20.10;99.90;;;;;;7332815;19;113838;-57
2023/06/22 13:56:55;;;;;;;;;;;20.20;99.90;;;;;;7333631;19;109427;-57
2023/06/22 13:59:22;;;;;;;;;;;20.30;99.90;;;;;;7332826;19;109764;-57
2023/06/22 14:01:50;;;;;;;;;;;20.40;99.90;;;;;;7346444;19;108941;-57
2023/06/22 14:04:17;;;;;;;;;;;20.40;99.90;;;;;;7335836;19;110409;-57
2023/06/22 14:06:44;;;;;;;;;;;20.30;99.90;;;;;;7341678;19;108619;-58